createdAt,value
2023-02-02T00:00:11.946Z,1.50
2023-02-02T00:10:15.965Z,1.60
2023-02-02T00:20:22.395Z,1.60
2023-02-02T00:30:26.847Z,1.30
2023-02-02T00:40:32.384Z,1.00
2023-02-02T00:50:36.201Z,0.70
2023-02-02T01:00:41.618Z,0.40
2023-02-02T01:10:45.509Z,0.20
2023-02-02T01:20:58.482Z,0.00
2023-02-02T01:31:09.301Z,-0.20
2023-02-02T01:41:20.188Z,-0.20
2023-02-02T01:51:28.766Z,-0.30
2023-02-02T02:01:35.547Z,-0.20
2023-02-02T02:11:39.374Z,-0.30
2023-02-02T02:22:24.487Z,-0.20
2023-02-02T02:32:39.472Z,-0.20
2023-02-02T02:42:48.302Z,-0.20
2023-02-02T02:53:02.158Z,-0.10
2023-02-02T03:03:17.746Z,0.00
2023-02-02T03:13:22.994Z,0.00
2023-02-02T03:23:27.639Z,0.10
2023-02-02T03:33:34.848Z,0.20
2023-02-02T03:43:38.709Z,0.30
2023-02-02T03:53:47.695Z,0.40
2023-02-02T04:03:52.233Z,0.40
2023-02-02T04:13:57.378Z,0.40
2023-02-02T04:24:01.875Z,0.60
2023-02-02T04:34:07.287Z,0.60
2023-02-02T04:44:16.687Z,0.60
2023-02-02T04:54:21.933Z,0.60
2023-02-02T05:04:25.987Z,0.60
2023-02-02T05:14:31.263Z,0.60
2023-02-02T05:24:35.290Z,0.60
2023-02-02T05:34:40.546Z,0.70
2023-02-02T05:44:44.312Z,0.70
2023-02-02T05:54:49.675Z,0.70
2023-02-02T06:04:53.488Z,0.80
2023-02-02T06:14:58.682Z,0.90
2023-02-02T06:25:04.460Z,0.90
2023-02-02T06:35:10.985Z,1.10
2023-02-02T06:45:14.962Z,1.30
2023-02-02T06:55:21.135Z,1.50
2023-02-02T07:05:25.475Z,1.70
2023-02-02T07:15:31.092Z,1.80
2023-02-02T07:25:35.113Z,1.90
2023-02-02T07:35:40.264Z,1.90
2023-02-02T07:45:44.393Z,2.00
2023-02-02T07:55:49.579Z,1.90
2023-02-02T08:05:53.514Z,1.70
2023-02-02T08:16:00.671Z,1.60
2023-02-02T08:26:09.648Z,1.60
2023-02-02T08:36:16.840Z,1.40
2023-02-02T08:46:22.486Z,1.20
2023-02-02T08:56:27.667Z,1.30
2023-02-02T09:06:34.497Z,1.60
2023-02-02T09:16:40.212Z,1.50
2023-02-02T09:26:45.905Z,1.40
2023-02-02T09:36:51.914Z,1.70
2023-02-02T09:47:08.986Z,1.80
2023-02-02T09:57:21.111Z,1.90
2023-02-02T10:07:33.806Z,1.80
2023-02-02T10:17:45.370Z,1.70
2023-02-02T10:28:02.593Z,1.50
2023-02-02T10:38:20.806Z,1.10
2023-02-02T10:48:34.598Z,0.80
2023-02-02T10:58:46.195Z,0.70
2023-02-02T11:08:56.845Z,0.80
2023-02-02T11:19:02.479Z,1.20
2023-02-02T11:29:06.109Z,1.30
2023-02-02T11:39:22.957Z,1.70
2023-02-02T11:49:27.660Z,1.80
2023-02-02T11:59:36.731Z,1.90
2023-02-02T12:09:40.519Z,2.00
2023-02-02T12:20:31.256Z,2.40
2023-02-02T12:30:43.601Z,2.40
2023-02-02T12:41:25.056Z,2.30
2023-02-02T12:52:00.197Z,2.20
2023-02-02T13:02:14.176Z,2.30
2023-02-02T13:12:23.731Z,2.40
2023-02-02T13:22:35.245Z,2.40
2023-02-02T13:32:42.820Z,2.40
2023-02-02T13:42:52.818Z,2.50
2023-02-02T13:53:21.602Z,2.60
2023-02-02T14:03:38.473Z,2.30
2023-02-02T14:14:05.374Z,2.30
2023-02-02T14:24:46.956Z,2.20
2023-02-02T14:34:51.442Z,2.30
2023-02-02T14:45:29.402Z,2.30
2023-02-02T14:55:33.823Z,2.50
2023-02-02T15:05:46.602Z,2.50
2023-02-02T15:15:54.316Z,2.40
2023-02-02T15:26:06.631Z,2.10
2023-02-02T15:36:20.224Z,2.00
2023-02-02T15:46:28.523Z,1.80
2023-02-02T15:56:32.745Z,1.80
2023-02-02T16:06:41.048Z,1.70
2023-02-02T16:16:47.225Z,1.70
2023-02-02T16:26:53.881Z,1.60
2023-02-02T16:37:08.580Z,1.50
2023-02-02T16:47:39.919Z,1.50
2023-02-02T16:57:47.330Z,1.50
2023-02-02T17:07:58.530Z,1.50
2023-02-02T17:18:03.246Z,1.50
2023-02-02T17:28:13.751Z,1.40
2023-02-02T17:38:17.962Z,1.20
2023-02-02T17:48:23.273Z,0.70
2023-02-02T17:58:27.096Z,0.30
2023-02-02T18:08:34.301Z,0.50
2023-02-02T18:18:38.335Z,0.70
2023-02-02T18:28:43.910Z,0.90
2023-02-02T18:38:50.839Z,0.80
2023-02-02T18:48:57.137Z,0.80
2023-02-02T18:59:01.179Z,0.80
2023-02-02T19:09:10.413Z,0.80
2023-02-02T19:19:26.231Z,0.80
2023-02-02T19:29:37.304Z,0.80
2023-02-02T19:39:41.376Z,0.80
2023-02-02T19:49:46.485Z,0.70
2023-02-02T19:59:54.191Z,0.70
2023-02-02T20:10:14.854Z,0.70
2023-02-02T20:20:27.490Z,0.60
2023-02-02T20:30:38.533Z,0.40
2023-02-02T20:40:44.413Z,0.30
2023-02-02T20:50:49.678Z,0.30
2023-02-02T21:00:53.501Z,0.30
2023-02-02T21:10:58.654Z,0.30
2023-02-02T21:21:02.531Z,0.10
2023-02-02T21:31:08.294Z,-0.20
2023-02-02T21:41:16.258Z,-0.30
2023-02-02T21:51:29.462Z,-0.50
2023-02-02T22:01:38.499Z,-0.60
2023-02-02T22:11:49.874Z,-0.50
2023-02-02T22:21:54.255Z,-0.40
2023-02-02T22:31:59.401Z,-0.50
2023-02-02T22:42:03.197Z,-0.50
2023-02-02T22:52:08.622Z,-0.30
2023-02-02T23:02:12.457Z,-0.20
2023-02-02T23:12:17.622Z,-0.20
2023-02-02T23:22:21.333Z,-0.20
2023-02-02T23:32:26.840Z,-0.20
2023-02-02T23:42:30.818Z,-0.30
2023-02-02T23:52:37.006Z,-0.30
